createdAt,value
2022-12-26T00:00:48.743Z,6.07
2022-12-26T00:03:15.570Z,6.10
2022-12-26T00:05:42.445Z,6.03
2022-12-26T00:08:12.243Z,6.63
2022-12-26T00:10:38.913Z,6.47
2022-12-26T00:13:38.656Z,5.80
2022-12-26T00:15:52.329Z,6.10
2022-12-26T00:18:19.221Z,5.93
2022-12-26T00:20:46.828Z,5.88
2022-12-26T00:23:13.737Z,5.75
2022-12-26T00:25:40.408Z,5.57
2022-12-26T00:28:07.084Z,5.53
2022-12-26T00:30:33.788Z,5.68
2022-12-26T00:33:00.412Z,5.13
2022-12-26T00:35:27.104Z,5.28
2022-12-26T00:37:54.052Z,5.60
2022-12-26T00:40:20.844Z,5.97
2022-12-26T00:42:47.532Z,5.22
2022-12-26T00:45:14.227Z,4.95
2022-12-26T00:47:40.869Z,4.82
2022-12-26T00:50:13.677Z,5.25
2022-12-26T00:52:42.585Z,5.43
2022-12-26T00:55:09.563Z,4.70
2022-12-26T00:57:36.296Z,5.60
2022-12-26T01:00:03.265Z,4.80
2022-12-26T01:02:39.359Z,4.80
2022-12-26T01:05:10.850Z,5.15
2022-12-26T01:08:21.886Z,5.05
2022-12-26T01:10:25.561Z,4.93
2022-12-26T01:12:52.260Z,5.78
2022-12-26T01:15:19.635Z,4.57
2022-12-26T01:17:46.379Z,4.80
2022-12-26T01:20:13.177Z,5.30
2022-12-26T01:22:39.855Z,4.40
2022-12-26T01:25:07.400Z,5.03
2022-12-26T01:27:34.265Z,5.05
2022-12-26T01:30:01.193Z,4.60
2022-12-26T01:32:27.914Z,4.93
2022-12-26T01:34:55.728Z,4.95
2022-12-26T01:37:23.711Z,4.88
2022-12-26T01:39:51.647Z,4.38
2022-12-26T01:42:21.989Z,4.60
2022-12-26T01:45:21.779Z,5.28
2022-12-26T01:47:55.363Z,4.97
2022-12-26T01:50:29.512Z,4.38
2022-12-26T01:52:58.663Z,4.30
2022-12-26T01:55:25.894Z,4.13
2022-12-26T01:58:01.159Z,4.70
2022-12-26T02:00:28.410Z,4.25
2022-12-26T02:03:16.926Z,5.18
2022-12-26T02:05:44.044Z,4.20
2022-12-26T02:08:17.641Z,4.95
2022-12-26T02:11:08.191Z,4.30
2022-12-26T02:13:36.788Z,5.90
2022-12-26T02:16:04.953Z,4.90
2022-12-26T02:18:31.874Z,4.70
2022-12-26T02:21:09.511Z,4.93
2022-12-26T02:23:41.980Z,4.50
2022-12-26T02:26:25.781Z,4.70
2022-12-26T02:29:24.317Z,4.90
2022-12-26T02:32:12.168Z,4.57
2022-12-26T02:34:44.957Z,4.35
2022-12-26T02:37:47.226Z,4.63
2022-12-26T02:40:31.286Z,4.30
2022-12-26T02:43:03.369Z,4.65
2022-12-26T02:45:54.798Z,4.80
2022-12-26T02:48:43.040Z,4.93
2022-12-26T02:51:54.400Z,4.40
2022-12-26T02:54:50.946Z,4.47
2022-12-26T02:57:39.945Z,4.70
2022-12-26T03:00:34.975Z,4.68
2022-12-26T03:03:23.597Z,4.43
2022-12-26T03:06:16.566Z,4.70
2022-12-26T03:09:05.399Z,4.63
2022-12-26T03:11:55.676Z,4.13
2022-12-26T03:14:52.099Z,4.22
2022-12-26T03:17:38.305Z,4.40
2022-12-26T03:20:12.385Z,4.00
2022-12-26T03:22:44.197Z,4.32
2022-12-26T03:25:39.285Z,4.03
2022-12-26T03:28:06.049Z,3.95
2022-12-26T03:30:51.026Z,4.70
2022-12-26T03:33:49.652Z,3.80
2022-12-26T03:36:45.731Z,4.07
2022-12-26T03:39:51.284Z,3.75
2022-12-26T03:42:57.177Z,4.03
2022-12-26T03:45:58.091Z,4.15
2022-12-26T03:48:50.456Z,3.78
2022-12-26T03:51:44.223Z,3.88
2022-12-26T03:54:35.956Z,4.20
2022-12-26T03:57:26.576Z,3.65
2022-12-26T04:00:25.019Z,3.90
2022-12-26T04:03:12.861Z,3.50
2022-12-26T04:06:01.821Z,3.83
2022-12-26T04:08:53.547Z,3.50
2022-12-26T04:11:40.155Z,3.60
2022-12-26T04:14:48.472Z,3.97
2022-12-26T04:17:44.338Z,3.60
2022-12-26T04:20:43.623Z,3.70
2022-12-26T04:23:42.026Z,3.65
2022-12-26T04:26:49.634Z,3.67
2022-12-26T04:29:34.982Z,3.70
2022-12-26T04:32:33.016Z,3.67
2022-12-26T04:35:38.875Z,3.30
2022-12-26T04:38:25.289Z,3.90
2022-12-26T04:41:14.071Z,3.50
2022-12-26T04:43:59.934Z,3.55
2022-12-26T04:46:27.561Z,3.50
2022-12-26T04:49:13.576Z,3.60
2022-12-26T04:51:40.321Z,3.53
2022-12-26T04:54:07.367Z,3.40
2022-12-26T04:56:34.074Z,3.58
2022-12-26T04:59:00.791Z,3.53
2022-12-26T05:01:49.238Z,3.63
2022-12-26T05:04:36.724Z,3.85
2022-12-26T05:07:23.513Z,3.15
2022-12-26T05:09:52.689Z,3.40
2022-12-26T05:12:19.865Z,3.58
2022-12-26T05:14:46.732Z,3.47
2022-12-26T05:17:32.533Z,3.50
2022-12-26T05:20:17.983Z,3.50
2022-12-26T05:23:04.306Z,3.65
2022-12-26T05:25:54.772Z,3.58
2022-12-26T05:28:40.710Z,3.55
2022-12-26T05:31:08.293Z,3.72
2022-12-26T05:33:56.812Z,3.15
2022-12-26T05:36:26.228Z,3.20
2022-12-26T05:38:52.902Z,3.65
2022-12-26T05:41:19.551Z,3.22
2022-12-26T05:43:46.342Z,3.53
2022-12-26T05:46:14.196Z,2.92
2022-12-26T05:48:41.313Z,3.30
2022-12-26T05:51:08.020Z,3.20
2022-12-26T05:53:34.757Z,3.30
2022-12-26T05:56:11.730Z,3.30
2022-12-26T05:58:38.630Z,2.75
2022-12-26T06:01:16.572Z,3.17
2022-12-26T06:03:47.791Z,3.17
2022-12-26T06:06:15.876Z,2.75
2022-12-26T06:08:42.707Z,2.80
2022-12-26T06:11:12.762Z,2.38
2022-12-26T06:13:40.806Z,2.90
2022-12-26T06:16:09.680Z,2.67
2022-12-26T06:18:39.967Z,3.00
2022-12-26T06:21:09.145Z,2.90
2022-12-26T06:23:36.420Z,2.55
2022-12-26T06:26:03.697Z,2.80
2022-12-26T06:28:30.463Z,2.92
2022-12-26T06:31:12.448Z,2.50
2022-12-26T06:33:40.652Z,2.40
2022-12-26T06:36:09.989Z,2.50
2022-12-26T06:38:36.783Z,2.88
2022-12-26T06:41:08.451Z,2.70
2022-12-26T06:43:35.216Z,2.80
2022-12-26T06:46:03.649Z,2.85
2022-12-26T06:48:32.142Z,2.65
2022-12-26T06:51:04.033Z,2.58
2022-12-26T06:53:30.772Z,2.50
2022-12-26T06:56:06.460Z,2.72
2022-12-26T06:58:33.134Z,2.72
2022-12-26T07:01:07.963Z,3.00
2022-12-26T07:03:35.541Z,2.83
2022-12-26T07:06:19.099Z,2.75
2022-12-26T07:08:46.155Z,2.95
2022-12-26T07:11:16.907Z,2.83
2022-12-26T07:13:43.805Z,2.90
2022-12-26T07:16:13.639Z,3.08
2022-12-26T07:18:40.781Z,2.50
2022-12-26T07:21:08.982Z,2.78
2022-12-26T07:23:35.884Z,2.88
2022-12-26T07:26:02.654Z,2.70
2022-12-26T07:28:29.721Z,2.78
2022-12-26T07:30:57.772Z,2.45
2022-12-26T07:33:28.962Z,2.72
2022-12-26T07:36:02.977Z,2.40
2022-12-26T07:38:36.350Z,2.33
2022-12-26T07:41:25.996Z,2.25
2022-12-26T07:43:54.766Z,2.20
2022-12-26T07:46:21.956Z,2.10
2022-12-26T07:48:49.255Z,2.65
2022-12-26T07:51:18.356Z,2.35
2022-12-26T07:53:45.816Z,2.25
2022-12-26T07:56:12.710Z,2.53
2022-12-26T07:58:40.021Z,2.38
2022-12-26T08:01:07.012Z,2.15
2022-12-26T08:03:34.718Z,2.60
2022-12-26T08:06:01.784Z,2.35
2022-12-26T08:08:28.652Z,2.25
2022-12-26T08:11:03.469Z,2.35
2022-12-26T08:13:31.784Z,1.98
2022-12-26T08:16:00.850Z,2.05
2022-12-26T08:18:27.665Z,2.30
2022-12-26T08:20:58.305Z,2.38
2022-12-26T08:23:28.099Z,1.98
2022-12-26T08:25:54.785Z,1.75
2022-12-26T08:28:21.434Z,2.10
2022-12-26T08:30:50.170Z,2.08
2022-12-26T08:33:17.105Z,2.13
2022-12-26T08:35:44.176Z,1.80
2022-12-26T08:38:17.069Z,1.63
2022-12-26T08:40:44.478Z,2.00
2022-12-26T08:43:32.065Z,1.98
2022-12-26T08:46:07.401Z,2.00
2022-12-26T08:48:34.736Z,1.98
2022-12-26T08:51:09.960Z,2.42
2022-12-26T08:53:37.939Z,2.40
2022-12-26T08:56:06.663Z,2.67
2022-12-26T08:58:33.876Z,2.42
2022-12-26T09:01:15.074Z,2.42
2022-12-26T09:03:42.243Z,2.72
2022-12-26T09:06:10.048Z,3.00
2022-12-26T09:08:37.688Z,2.88
2022-12-26T09:11:13.132Z,2.88
2022-12-26T09:13:40.339Z,2.85
2022-12-26T09:16:20.125Z,2.83
2022-12-26T09:18:48.125Z,2.83
2022-12-26T09:21:17.495Z,3.03
2022-12-26T09:23:44.253Z,3.03
2022-12-26T09:26:14.394Z,3.03
2022-12-26T09:28:41.650Z,2.85
2022-12-26T09:31:12.007Z,2.78
2022-12-26T09:33:39.192Z,3.03
2022-12-26T09:36:14.061Z,2.88
2022-12-26T09:38:41.957Z,2.78
2022-12-26T09:41:47.943Z,2.58
2022-12-26T09:44:22.770Z,2.58
2022-12-26T09:47:07.601Z,2.67
2022-12-26T09:49:38.335Z,2.83
2022-12-26T09:52:31.167Z,2.67
2022-12-26T09:55:00.827Z,2.40
2022-12-26T09:57:36.215Z,2.33
2022-12-26T10:00:05.507Z,2.63
2022-12-26T10:02:39.348Z,2.35
2022-12-26T10:05:06.621Z,5.35
2022-12-26T10:07:41.811Z,8.80
2022-12-26T10:10:13.206Z,5.07
2022-12-26T10:12:46.502Z,4.25
2022-12-26T10:15:26.246Z,3.30
2022-12-26T10:17:59.433Z,2.38
2022-12-26T10:20:44.039Z,2.58
2022-12-26T10:23:35.492Z,2.50
2022-12-26T10:26:16.261Z,2.58
2022-12-26T10:28:51.521Z,2.75
2022-12-26T10:31:41.609Z,2.40
2022-12-26T10:34:11.812Z,2.40
2022-12-26T10:36:46.734Z,2.25
2022-12-26T10:39:48.376Z,2.40
2022-12-26T10:42:33.463Z,2.13
2022-12-26T10:45:00.906Z,2.10
2022-12-26T10:47:34.863Z,1.77
2022-12-26T10:50:01.523Z,2.08
2022-12-26T10:52:33.449Z,1.70
2022-12-26T10:55:29.125Z,1.80
2022-12-26T10:57:51.271Z,1.98
2022-12-26T11:00:24.850Z,1.70
2022-12-26T11:03:14.786Z,1.67
2022-12-26T11:06:09.847Z,1.88
2022-12-26T11:08:47.681Z,1.80
2022-12-26T11:11:20.532Z,1.58
2022-12-26T11:13:49.968Z,1.67
2022-12-26T11:16:26.220Z,1.67
2022-12-26T11:18:53.178Z,2.15
2022-12-26T11:21:19.802Z,2.00
2022-12-26T11:23:48.333Z,2.20
2022-12-26T11:26:32.281Z,2.20
2022-12-26T11:29:21.416Z,2.05
2022-12-26T11:32:06.393Z,1.83
2022-12-26T11:34:46.243Z,1.92
2022-12-26T11:37:24.602Z,2.33
2022-12-26T11:39:51.992Z,2.30
2022-12-26T11:42:20.972Z,2.30
2022-12-26T11:44:52.896Z,2.10
2022-12-26T11:47:21.803Z,2.25
2022-12-26T11:50:00.020Z,2.60
2022-12-26T11:52:39.189Z,2.38
2022-12-26T11:55:38.139Z,2.72
2022-12-26T11:58:21.141Z,2.47
2022-12-26T12:00:51.071Z,3.10
2022-12-26T12:03:21.960Z,2.88
2022-12-26T12:05:55.158Z,2.90
2022-12-26T12:08:34.560Z,2.50
2022-12-26T12:11:22.516Z,3.00
2022-12-26T12:14:10.900Z,2.65
2022-12-26T12:16:43.714Z,2.45
2022-12-26T12:19:45.586Z,2.30
2022-12-26T12:22:18.443Z,2.42
2022-12-26T12:24:48.301Z,2.70
2022-12-26T12:27:37.976Z,2.60
2022-12-26T12:30:20.297Z,2.45
2022-12-26T12:33:02.155Z,2.50
2022-12-26T12:35:54.373Z,2.70
2022-12-26T12:38:31.520Z,2.47
2022-12-26T12:41:05.269Z,2.20
2022-12-26T12:43:55.709Z,2.35
2022-12-26T12:46:49.777Z,2.55
2022-12-26T12:49:24.014Z,2.28
2022-12-26T12:51:56.870Z,2.55
2022-12-26T12:54:49.081Z,2.63
2022-12-26T12:57:34.444Z,2.35
2022-12-26T13:00:18.208Z,2.35
2022-12-26T13:03:12.559Z,2.58
2022-12-26T13:05:49.394Z,2.30
2022-12-26T13:08:22.637Z,2.50
2022-12-26T13:10:53.431Z,2.17
2022-12-26T13:13:30.447Z,2.72
2022-12-26T13:16:16.115Z,2.60
2022-12-26T13:18:51.388Z,2.75
2022-12-26T13:21:20.302Z,2.22
2022-12-26T13:24:16.058Z,2.25
2022-12-26T13:26:45.665Z,2.63
2022-12-26T13:29:29.268Z,2.55
2022-12-26T13:31:58.295Z,2.42
2022-12-26T13:34:25.247Z,2.85
2022-12-26T13:36:55.972Z,2.47
2022-12-26T13:39:24.131Z,2.58
2022-12-26T13:42:14.911Z,2.42
2022-12-26T13:44:41.766Z,2.72
2022-12-26T13:47:32.857Z,3.00
2022-12-26T13:49:59.653Z,2.97
2022-12-26T13:52:35.040Z,3.58
2022-12-26T13:55:04.641Z,3.20
2022-12-26T13:57:44.226Z,3.33
2022-12-26T14:00:25.614Z,2.92
2022-12-26T14:03:23.991Z,3.10
2022-12-26T14:06:13.226Z,3.08
2022-12-26T14:08:55.423Z,3.20
2022-12-26T14:11:50.152Z,3.17
2022-12-26T14:14:59.177Z,3.10
2022-12-26T14:17:35.514Z,2.90
2022-12-26T14:20:15.495Z,3.45
2022-12-26T14:23:20.013Z,3.50
2022-12-26T14:25:58.989Z,4.97
2022-12-26T14:28:55.337Z,4.60
2022-12-26T14:31:37.317Z,3.90
2022-12-26T14:34:20.659Z,3.72
2022-12-26T14:37:09.862Z,3.05
2022-12-26T14:40:01.156Z,3.08
2022-12-26T14:42:48.451Z,2.58
2022-12-26T14:45:21.138Z,2.80
2022-12-26T14:47:49.214Z,2.22
2022-12-26T14:50:34.683Z,2.90
2022-12-26T14:53:20.021Z,2.65
2022-12-26T14:56:02.346Z,2.42
2022-12-26T14:58:32.060Z,3.45
2022-12-26T15:01:13.089Z,3.22
2022-12-26T15:04:01.681Z,3.25
2022-12-26T15:06:54.001Z,2.80
2022-12-26T15:10:05.721Z,3.13
2022-12-26T15:13:05.916Z,3.08
2022-12-26T15:16:03.640Z,3.00
2022-12-26T15:18:48.939Z,2.90
2022-12-26T15:21:34.378Z,2.92
2022-12-26T15:24:34.264Z,3.03
2022-12-26T15:27:23.031Z,3.00
2022-12-26T15:30:15.070Z,2.42
2022-12-26T15:33:09.051Z,2.53
2022-12-26T15:35:49.460Z,2.70
2022-12-26T15:38:26.574Z,2.58
2022-12-26T15:41:03.674Z,2.33
2022-12-26T15:43:36.470Z,2.75
2022-12-26T15:46:09.256Z,2.58
2022-12-26T15:48:57.361Z,2.45
2022-12-26T15:52:06.798Z,2.47
2022-12-26T15:54:58.308Z,2.33
2022-12-26T15:57:29.847Z,2.10
2022-12-26T16:00:12.989Z,2.25
2022-12-26T16:03:02.779Z,2.50
2022-12-26T16:05:34.727Z,1.95
2022-12-26T16:08:28.879Z,1.60
2022-12-26T16:11:17.619Z,1.75
2022-12-26T16:13:51.717Z,1.50
2022-12-26T16:16:26.038Z,1.88
2022-12-26T16:18:52.992Z,1.55
2022-12-26T16:21:39.274Z,1.70
2022-12-26T16:24:08.987Z,1.75
2022-12-26T16:26:42.186Z,1.70
2022-12-26T16:29:15.113Z,1.58
2022-12-26T16:31:42.051Z,1.40
2022-12-26T16:34:15.551Z,1.77
2022-12-26T16:36:42.717Z,1.40
2022-12-26T16:39:10.518Z,1.35
2022-12-26T16:42:01.110Z,1.50
2022-12-26T16:44:31.780Z,1.35
2022-12-26T16:47:11.196Z,1.48
2022-12-26T16:49:38.751Z,1.58
2022-12-26T16:52:07.902Z,1.67
2022-12-26T16:54:39.934Z,1.50
2022-12-26T16:57:18.717Z,1.70
2022-12-26T16:59:52.352Z,1.15
2022-12-26T17:02:27.072Z,1.25
2022-12-26T17:05:01.463Z,1.85
2022-12-26T17:07:31.665Z,1.30
2022-12-26T17:10:00.150Z,1.05
2022-12-26T17:12:36.177Z,1.30
2022-12-26T17:15:04.988Z,1.23
2022-12-26T17:17:37.097Z,1.20
2022-12-26T17:20:21.998Z,1.20
2022-12-26T17:22:53.997Z,1.30
2022-12-26T17:25:27.928Z,1.00
2022-12-26T17:28:09.973Z,1.20
2022-12-26T17:30:38.604Z,1.42
2022-12-26T17:33:13.938Z,1.30
2022-12-26T17:36:25.346Z,1.08
2022-12-26T17:38:28.442Z,1.00
2022-12-26T17:40:57.567Z,1.10
2022-12-26T17:43:29.912Z,1.05
2022-12-26T17:45:56.681Z,1.13
2022-12-26T17:48:23.708Z,1.30
2022-12-26T17:50:55.290Z,1.33
2022-12-26T17:53:49.967Z,1.25
2022-12-26T17:56:21.001Z,1.40
2022-12-26T17:58:48.947Z,1.00
2022-12-26T18:01:20.931Z,1.33
2022-12-26T18:03:48.436Z,1.67
2022-12-26T18:06:17.148Z,1.50
2022-12-26T18:08:44.448Z,1.40
2022-12-26T18:11:14.735Z,1.40
2022-12-26T18:13:41.785Z,1.83
2022-12-26T18:16:14.463Z,1.45
2022-12-26T18:18:43.399Z,1.73
2022-12-26T18:21:12.431Z,1.23
2022-12-26T18:23:39.364Z,1.50
2022-12-26T18:26:13.591Z,1.40
2022-12-26T18:28:40.590Z,1.23
2022-12-26T18:31:09.296Z,1.20
2022-12-26T18:33:36.022Z,1.25
2022-12-26T18:36:07.406Z,1.52
2022-12-26T18:38:34.581Z,1.27
2022-12-26T18:41:02.471Z,1.40
2022-12-26T18:43:29.266Z,1.20
2022-12-26T18:45:56.007Z,1.40
2022-12-26T18:48:22.957Z,1.65
2022-12-26T18:50:49.622Z,1.30
2022-12-26T18:53:16.585Z,1.15
2022-12-26T18:55:46.414Z,1.15
2022-12-26T18:58:13.382Z,1.10
2022-12-26T19:00:40.484Z,1.15
2022-12-26T19:03:07.279Z,1.40
2022-12-26T19:05:34.736Z,1.33
2022-12-26T19:08:02.306Z,1.67
2022-12-26T19:10:31.795Z,1.27
2022-12-26T19:13:05.420Z,1.55
2022-12-26T19:15:34.665Z,1.23
2022-12-26T19:18:02.053Z,1.30
2022-12-26T19:20:28.967Z,1.20
2022-12-26T19:22:56.370Z,1.00
2022-12-26T19:25:24.915Z,1.10
2022-12-26T19:27:52.188Z,0.77
2022-12-26T19:30:20.051Z,1.20
2022-12-26T19:32:47.021Z,2.58
2022-12-26T19:35:14.371Z,1.10
2022-12-26T19:37:41.186Z,1.00
2022-12-26T19:40:09.132Z,1.00
2022-12-26T19:42:37.469Z,0.80
2022-12-26T19:45:05.276Z,0.80
2022-12-26T19:47:32.779Z,0.80
2022-12-26T19:50:06.794Z,1.00
2022-12-26T19:52:36.577Z,0.85
2022-12-26T19:55:07.776Z,0.82
2022-12-26T19:57:34.808Z,0.70
2022-12-26T20:00:01.611Z,0.82
2022-12-26T20:02:39.207Z,0.82
2022-12-26T20:05:07.739Z,0.70
2022-12-26T20:07:34.508Z,0.60
2022-12-26T20:10:01.196Z,0.80
2022-12-26T20:12:28.082Z,0.70
2022-12-26T20:14:55.020Z,0.50
2022-12-26T20:17:22.062Z,0.60
2022-12-26T20:19:50.310Z,0.50
2022-12-26T20:22:16.981Z,0.60
2022-12-26T20:24:43.697Z,0.50
2022-12-26T20:27:10.438Z,0.70
2022-12-26T20:29:37.077Z,0.55
2022-12-26T20:32:03.773Z,0.50
2022-12-26T20:34:30.540Z,0.70
2022-12-26T20:36:57.222Z,1.00
2022-12-26T20:39:25.680Z,0.63
2022-12-26T20:41:52.379Z,0.63
2022-12-26T20:44:19.370Z,0.95
2022-12-26T20:46:46.285Z,0.70
2022-12-26T20:49:13.317Z,0.68
2022-12-26T20:51:42.439Z,0.70
2022-12-26T20:54:14.134Z,0.73
2022-12-26T20:56:41.266Z,0.90
2022-12-26T20:59:08.905Z,0.90
2022-12-26T21:01:36.716Z,0.75
2022-12-26T21:04:03.625Z,0.70
2022-12-26T21:06:32.174Z,1.00
2022-12-26T21:08:59.487Z,0.80
2022-12-26T21:11:29.262Z,0.90
2022-12-26T21:14:07.637Z,1.02
2022-12-26T21:16:37.534Z,1.00
2022-12-26T21:19:09.372Z,0.90
2022-12-26T21:21:42.010Z,0.80
2022-12-26T21:24:12.938Z,1.00
2022-12-26T21:26:42.087Z,1.17
2022-12-26T21:29:13.197Z,1.30
2022-12-26T21:31:41.594Z,1.17
2022-12-26T21:34:09.007Z,1.38
2022-12-26T21:36:36.011Z,0.93
2022-12-26T21:39:10.138Z,1.00
2022-12-26T21:41:37.858Z,1.27
2022-12-26T21:44:04.895Z,1.17
2022-12-26T21:46:31.562Z,1.20
2022-12-26T21:48:58.336Z,1.58
2022-12-26T21:51:26.078Z,1.52
2022-12-26T21:54:13.122Z,1.33
2022-12-26T21:56:39.769Z,1.17
2022-12-26T21:59:25.443Z,1.40
2022-12-26T22:01:52.364Z,1.20
2022-12-26T22:04:19.049Z,1.38
2022-12-26T22:06:45.883Z,0.90
2022-12-26T22:09:12.904Z,1.25
2022-12-26T22:11:58.168Z,1.50
2022-12-26T22:14:24.988Z,1.35
2022-12-26T22:16:53.148Z,1.20
2022-12-26T22:19:19.927Z,1.50
2022-12-26T22:21:46.615Z,1.33
2022-12-26T22:24:13.414Z,1.45
2022-12-26T22:26:40.086Z,1.45
2022-12-26T22:29:06.910Z,1.30
2022-12-26T22:31:35.751Z,1.20
2022-12-26T22:34:07.734Z,1.30
2022-12-26T22:36:34.757Z,1.23
2022-12-26T22:39:01.763Z,1.05
2022-12-26T22:41:28.703Z,1.15
2022-12-26T22:43:55.453Z,1.52
2022-12-26T22:46:22.599Z,1.30
2022-12-26T22:48:49.858Z,1.02
2022-12-26T22:51:26.441Z,1.08
2022-12-26T22:53:55.984Z,1.05
2022-12-26T22:56:22.687Z,1.48
2022-12-26T22:58:55.870Z,1.15
2022-12-26T23:01:23.591Z,1.50
2022-12-26T23:03:50.543Z,1.00
2022-12-26T23:06:25.635Z,1.15
2022-12-26T23:08:54.479Z,1.20
2022-12-26T23:11:22.354Z,1.65
2022-12-26T23:13:49.946Z,1.33
2022-12-26T23:16:27.252Z,1.30
2022-12-26T23:19:22.734Z,1.60
2022-12-26T23:21:50.598Z,1.30
2022-12-26T23:24:23.566Z,1.90
2022-12-26T23:26:55.520Z,1.17
2022-12-26T23:29:42.513Z,1.35
2022-12-26T23:32:10.275Z,1.25
2022-12-26T23:34:37.040Z,1.52
2022-12-26T23:37:04.061Z,1.63
2022-12-26T23:39:30.833Z,1.38
2022-12-26T23:41:57.499Z,1.10
2022-12-26T23:44:24.214Z,1.25
2022-12-26T23:46:51.000Z,1.27
2022-12-26T23:49:17.760Z,1.58
2022-12-26T23:51:44.426Z,1.42
2022-12-26T23:54:11.593Z,1.08
2022-12-26T23:56:38.246Z,1.27
2022-12-26T23:59:05.639Z,1.10
